Time;durP1;ratioP1;P1;durP2;ratioP2;P2;SDS_P1;SDS_P2;PMS_P1;PMS_P2;Temp;Humidity;BMP_temperature;BMP_pressure;BME280_temperature;BME280_humidity;BME280_pressure;Samples;Min_cycle;Max_cycle;Signal;HPM_P1;HPM_P2
2021/08/04 00:00:59;;;;;;;0.60;0.60;;;;;;;17.56;71.94;98587.38;4976398;28;42790;-84
2021/08/04 00:03:27;;;;;;;0.40;0.30;;;;;;;17.70;72.17;98612.88;4991354;28;41900;-82
2021/08/04 00:05:57;;;;;;;0.47;0.30;;;;;;;17.65;71.94;98607.13;5050584;28;40624;-80
2021/08/04 00:08:46;;;;;;;0.87;0.77;;;;;;;17.50;72.74;98596.88;5105138;28;41897;-83
2021/08/04 00:51:02;;;;;;;0.40;0.40;;;;;;;17.25;72.93;98624.25;5025948;28;40198;-82
2021/08/04 01:07:14;;;;;;;0.47;0.47;;;;;;;17.10;74.10;98612.28;4955483;28;40986;-81
2021/08/04 01:09:46;;;;;;;0.40;0.40;;;;;;;17.07;74.34;98608.06;5026176;28;42143;-83
2021/08/04 01:12:20;;;;;;;0.70;0.60;;;;;;;16.95;74.28;98595.00;5010428;28;41476;-82
2021/08/04 01:14:53;;;;;;;0.50;0.50;;;;;;;17.04;74.55;98607.53;5010866;28;39846;-82
2021/08/04 01:17:21;;;;;;;0.40;0.40;;;;;;;16.99;74.15;98615.13;5010299;28;40898;-82
2021/08/04 01:20:00;;;;;;;0.60;0.40;;;;;;;16.95;74.25;98597.66;5026985;28;42938;-81
2021/08/04 01:22:35;;;;;;;0.40;0.40;;;;;;;16.98;74.03;98610.75;5010200;28;42149;-83
2021/08/04 01:25:12;;;;;;;0.40;0.40;;;;;;;17.00;74.48;98616.81;4994227;28;38955;-82
2021/08/04 01:27:44;;;;;;;0.40;0.40;;;;;;;16.97;74.49;98617.94;5013031;28;41399;-81
2021/08/04 01:30:13;;;;;;;1.53;0.80;;;;;;;16.80;73.99;98590.09;5029910;28;43146;-83
2021/08/04 01:32:41;;;;;;;0.50;0.47;;;;;;;16.87;73.90;98601.91;5080968;28;43774;-82
2021/08/04 01:35:09;;;;;;;0.50;0.50;;;;;;;16.87;74.24;98596.56;5075315;28;39986;-83
2021/08/04 01:37:38;;;;;;;0.30;0.30;;;;;;;16.92;74.26;98612.19;5110028;28;42057;-83
2021/08/04 01:40:11;;;;;;;0.50;0.50;;;;;;;17.00;74.13;98616.81;5092317;28;42995;-81
2021/08/04 01:42:39;;;;;;;0.63;0.57;;;;;;;16.96;74.00;98610.91;5074669;28;41103;-82
2021/08/04 01:45:10;;;;;;;0.80;0.50;;;;;;;16.94;74.20;98612.06;5091690;28;40387;-82
2021/08/04 01:47:40;;;;;;;0.43;0.43;;;;;;;16.75;74.37;98587.00;5091728;28;41548;-83
2021/08/04 01:50:08;;;;;;;0.70;0.57;;;;;;;16.87;74.26;98603.72;5074142;28;41356;-81
2021/08/04 01:52:43;;;;;;;0.40;0.40;;;;;;;16.94;74.24;98614.72;5075700;28;41229;-81
2021/08/04 01:55:12;;;;;;;0.50;0.30;;;;;;;16.84;74.09;98596.00;5092071;28;39969;-81
2021/08/04 01:57:41;;;;;;;0.30;0.30;;;;;;;16.89;73.96;98604.44;5074656;28;41842;-82
2021/08/04 02:00:12;;;;;;;0.63;0.43;;;;;;;16.93;74.04;98611.22;5091271;28;44335;-80
2021/08/04 02:02:44;;;;;;;0.37;0.37;;;;;;;16.99;74.10;98612.47;5076815;28;43292;-80
2021/08/04 02:05:12;;;;;;;0.40;0.40;;;;;;;16.88;74.17;98592.06;5095307;28;40185;-80
2021/08/04 02:07:54;;;;;;;0.40;0.30;;;;;;;16.98;74.06;98608.94;5094806;28;41851;-81
2021/08/04 02:10:26;;;;;;;0.40;0.40;;;;;;;16.98;74.01;98602.75;5095055;28;43746;-81
2021/08/04 02:12:58;;;;;;;1.17;0.40;;;;;;;16.95;73.87;98605.69;5077438;28;41264;-83
2021/08/04 02:15:32;;;;;;;0.47;0.47;;;;;;;16.87;73.74;98591.22;5095104;28;39907;-82
2021/08/04 02:18:04;;;;;;;0.57;0.57;;;;;;;16.88;74.00;98600.91;5094223;28;41548;-81
2021/08/04 02:20:37;;;;;;;0.50;0.50;;;;;;;16.87;73.76;98596.56;5077356;28;42712;-81
2021/08/04 02:23:11;;;;;;;0.60;0.60;;;;;;;16.87;73.96;98599.22;5095266;28;42321;-82
2021/08/04 02:25:43;;;;;;;0.67;0.43;;;;;;;16.90;73.58;98605.28;5077252;28;39347;-82
2021/08/04 02:28:14;;;;;;;0.53;0.43;;;;;;;17.01;73.58;98607.81;5078069;28;40758;-82
2021/08/04 02:30:44;;;;;;;0.40;0.40;;;;;;;16.94;73.61;98590.66;5094726;28;43961;-82
2021/08/04 02:33:12;;;;;;;0.80;0.80;;;;;;;17.09;73.26;98610.59;5077237;28;41102;-82
2021/08/04 02:35:40;;;;;;;0.40;0.40;;;;;;;17.05;72.94;98594.03;5076251;28;38930;-82
2021/08/04 02:38:07;;;;;;;0.40;0.40;;;;;;;17.14;72.71;98603.00;5076904;28;41052;-83
2021/08/04 02:40:35;;;;;;;0.47;0.47;;;;;;;17.23;72.83;98612.84;5076530;28;41971;-82
2021/08/04 02:43:04;;;;;;;0.50;0.50;;;;;;;17.22;73.07;98606.66;5094320;28;42321;-82
2021/08/04 02:45:32;;;;;;;0.60;0.60;;;;;;;17.20;72.60;98599.75;5094844;28;40794;-83
2021/08/04 02:48:01;;;;;;;0.53;0.53;;;;;;;17.29;72.59;98608.75;5076791;28;40843;-82
2021/08/04 02:50:29;;;;;;;0.83;0.60;;;;;;;17.25;72.73;98613.56;5112054;28;43715;-81
2021/08/04 02:52:57;;;;;;;0.40;0.40;;;;;;;17.25;72.56;98605.53;5093073;28;42757;-83
2021/08/04 02:55:24;;;;;;;0.30;0.30;;;;;;;17.31;72.70;98614.81;5094147;28;40243;-82
2021/08/04 02:57:52;;;;;;;0.47;0.47;;;;;;;17.33;72.80;98619.03;5076602;28;40783;-82
2021/08/04 03:00:20;;;;;;;0.30;0.30;;;;;;;17.29;72.60;98606.09;5077318;28;41837;-83
2021/08/04 03:02:48;;;;;;;0.50;0.50;;;;;;;17.30;72.73;98597.91;5077310;28;40937;-83
2021/08/04 03:05:17;;;;;;;2.33;0.50;;;;;;;17.40;72.81;98621.97;5093636;28;44581;-82
2021/08/04 03:07:45;;;;;;;0.60;0.60;;;;;;;17.34;72.54;98615.34;5077193;28;40888;-83
2021/08/04 06:53:55;;;;;;;0.87;0.87;;;;;;;19.92;65.72;98666.59;5002243;28;43122;-84
2021/08/04 06:56:23;;;;;;;1.40;1.30;;;;;;;20.00;66.00;98671.19;5026368;28;38695;-85
2021/08/04 06:58:51;;;;;;;1.13;0.80;;;;;;;20.16;65.63;98691.91;5057814;28;41707;-86
2021/08/04 07:01:19;;;;;;;0.97;0.83;;;;;;;20.30;65.12;98696.69;5066103;28;41800;-84
2021/08/04 07:03:47;;;;;;;1.00;0.90;;;;;;;20.39;65.10;98683.16;5069487;28;41039;-83
2021/08/04 07:06:14;;;;;;;0.67;0.67;;;;;;;20.53;64.31;98683.53;5068894;28;39371;-84
2021/08/04 07:08:42;;;;;;;0.90;0.90;;;;;;;20.71;63.31;98703.09;5080464;28;41922;-85
2021/08/04 07:11:11;;;;;;;0.70;0.70;;;;;;;20.81;63.01;98703.81;5073485;28;42949;-86
2021/08/04 07:13:39;;;;;;;1.00;0.90;;;;;;;20.93;63.00;98705.19;5056755;28;41112;-86
2021/08/04 07:16:07;;;;;;;0.90;0.90;;;;;;;20.97;63.40;98686.84;5055883;28;38987;-87
2021/08/04 07:18:35;;;;;;;0.93;0.70;;;;;;;21.06;62.76;98691.22;5056836;28;40652;-87
2021/08/04 07:21:02;;;;;;;0.70;0.70;;;;;;;21.19;62.45;98709.63;5056301;28;42082;-86
2021/08/04 07:23:30;;;;;;;0.80;0.80;;;;;;;21.15;62.38;98701.84;5056738;28;41630;-86
2021/08/04 07:25:58;;;;;;;0.70;0.50;;;;;;;21.13;62.71;98687.72;5056050;28;39071;-87
2021/08/04 07:28:27;;;;;;;1.00;1.00;;;;;;;21.26;62.52;98702.59;5055570;28;40772;-85
2021/08/04 07:30:55;;;;;;;0.80;0.80;;;;;;;21.29;61.94;98703.06;5055393;28;43205;-86
2021/08/04 07:33:23;;;;;;;0.73;0.73;;;;;;;21.37;61.53;98704.94;5072448;28;42373;-85
2021/08/04 07:35:51;;;;;;;0.70;0.70;;;;;;;21.55;61.01;98705.59;5056345;28;38887;-86
2021/08/04 07:38:22;;;;;;;0.67;0.67;;;;;;;21.70;60.91;98687.75;5073540;28;41191;-88
2021/08/04 07:40:49;;;;;;;0.57;0.53;;;;;;;22.03;59.80;98688.53;5071978;28;41824;-86
2021/08/04 07:43:17;;;;;;;0.83;0.80;;;;;;;22.43;59.11;98687.56;5073338;28;42090;-87
2021/08/04 07:45:46;;;;;;;0.87;0.87;;;;;;;22.83;57.95;98705.47;5055405;28;39993;-86
2021/08/04 07:48:14;;;;;;;1.20;1.10;;;;;;;23.09;57.15;98710.56;5055815;28;40534;-85
2021/08/04 07:50:42;;;;;;;0.80;0.70;;;;;;;23.16;57.24;98699.84;5073384;28;43766;-86
2021/08/04 07:53:10;;;;;;;0.70;0.70;;;;;;;23.07;56.78;98693.69;5055820;28;41178;-86
2021/08/04 07:55:37;;;;;;;1.20;1.10;;;;;;;22.88;56.77;98691.41;5055611;28;39576;-86
2021/08/04 07:58:05;;;;;;;1.67;1.57;;;;;;;22.81;56.84;98706.66;5072401;28;40904;-86
2021/08/04 08:00:33;;;;;;;2.13;1.00;;;;;;;22.61;57.13;98690.03;5054118;28;43046;-86
2021/08/04 08:03:02;;;;;;;1.03;1.03;;;;;;;22.56;57.21;98698.66;5084654;28;42134;-85
2021/08/04 08:05:30;;;;;;;0.50;0.50;;;;;;;22.48;57.70;98705.94;5065633;28;39054;-84
2021/08/04 08:08:03;;;;;;;1.20;1.10;;;;;;;22.43;57.43;98702.91;5072364;28;40724;-85
2021/08/04 08:10:32;;;;;;;0.90;0.90;;;;;;;22.45;57.74;98699.03;5072795;28;42713;-84
2021/08/04 08:13:00;;;;;;;0.90;0.90;;;;;;;22.62;57.37;98707.06;5055821;28;41542;-85
2021/08/04 08:15:28;;;;;;;0.70;0.70;;;;;;;22.85;57.78;98702.59;5056719;28;39176;-85
2021/08/04 08:17:55;;;;;;;1.60;0.87;;;;;;;23.01;55.33;98707.03;5055875;28;40564;-88
2021/08/04 08:20:27;;;;;;;1.07;0.93;;;;;;;23.34;55.53;98718.47;5055785;28;41845;-86
2021/08/04 08:22:54;;;;;;;1.33;0.80;;;;;;;23.66;55.50;98710.13;5072343;28;43534;-85
2021/08/04 08:25:22;;;;;;;0.80;0.80;;;;;;;24.04;53.77;98719.06;5055178;28;39847;-85
2021/08/04 08:27:50;;;;;;;1.17;0.97;;;;;;;24.43;51.62;98716.13;5055618;28;40756;-86
2021/08/04 08:30:18;;;;;;;1.40;0.73;;;;;;;24.80;50.52;98722.44;5072938;28;42668;-86
2021/08/04 08:32:48;;;;;;;1.40;1.30;;;;;;;25.12;50.69;98713.03;5090113;28;42420;-85
2021/08/04 08:35:17;;;;;;;0.90;0.90;;;;;;;25.22;49.42;98733.38;5055116;28;40184;-85
2021/08/04 08:37:50;;;;;;;0.70;0.70;;;;;;;25.29;50.06;98723.44;5071955;28;41147;-86
2021/08/04 08:40:18;;;;;;;1.17;1.07;;;;;;;25.40;49.18;98725.66;5071829;28;41790;-84
2021/08/04 08:42:53;;;;;;;0.87;0.87;;;;;;;25.50;48.19;98727.19;5055694;28;41364;-85
2021/08/04 08:45:22;;;;;;;0.80;0.67;;;;;;;25.55;48.09;98727.47;5055358;28;40092;-85
2021/08/04 08:47:51;;;;;;;0.70;0.70;;;;;;;25.48;48.64;98716.53;5055120;28;41084;-85
2021/08/04 08:50:25;;;;;;;1.50;1.40;;;;;;;25.30;48.29;98695.31;5054973;28;42226;-85
2021/08/04 08:52:55;;;;;;;0.90;0.90;;;;;;;25.36;48.37;98718.91;5054647;28;42404;-86
2021/08/04 08:55:23;;;;;;;1.03;0.93;;;;;;;25.28;48.80;98710.94;5071668;28;39995;-85
2021/08/04 08:57:51;;;;;;;0.70;0.70;;;;;;;25.15;48.29;98716.22;5053750;28;40699;-85
2021/08/04 09:00:19;;;;;;;1.10;1.00;;;;;;;25.03;47.80;98718.59;5054591;28;41580;-85
2021/08/04 09:02:47;;;;;;;0.57;0.57;;;;;;;24.85;48.50;98692.94;5055334;28;42089;-85
2021/08/04 09:05:21;;;;;;;0.77;0.73;;;;;;;24.97;49.51;98710.41;5055437;28;39064;-86
2021/08/04 09:07:49;;;;;;;0.80;0.60;;;;;;;24.97;49.11;98697.66;5055238;28;40724;-86
2021/08/04 09:10:30;;;;;;;0.70;0.70;;;;;;;25.15;49.40;98704.53;5070930;28;41958;-85
2021/08/04 09:13:01;;;;;;;1.40;0.80;;;;;;;25.25;48.68;98699.63;5055206;28;42721;-86
2021/08/04 09:15:34;;;;;;;0.70;0.70;;;;;;;25.59;48.91;98717.91;5055082;28;39162;-86
2021/08/04 09:18:05;;;;;;;0.80;0.60;;;;;;;25.85;46.90;98717.31;5055455;28;41936;-85
2021/08/04 09:20:44;;;;;;;0.60;0.60;;;;;;;26.27;46.13;98713.63;5071585;28;43868;-86
2021/08/04 09:23:15;;;;;;;0.80;0.70;;;;;;;26.58;44.44;98719.47;5055094;28;41151;-87
2021/08/04 09:26:01;;;;;;;0.43;0.43;;;;;;;27.07;44.08;98719.31;5071643;28;40241;-85
2021/08/04 09:28:30;;;;;;;0.83;0.83;;;;;;;27.36;44.91;98718.13;5054134;28;41982;-86
2021/08/04 09:31:02;;;;;;;0.73;0.70;;;;;;;27.26;43.57;98709.53;5054161;28;41957;-85
2021/08/04 09:33:36;;;;;;;0.60;0.60;;;;;;;26.91;43.95;98699.78;5070371;28;41191;-86
2021/08/04 09:36:04;;;;;;;0.90;0.90;;;;;;;26.60;44.70;98703.81;5089437;28;40092;-85
2021/08/04 09:38:32;;;;;;;0.53;0.53;;;;;;;26.28;45.60;98696.34;5054694;28;40923;-86
2021/08/04 09:41:15;;;;;;;0.63;0.63;;;;;;;26.01;44.83;98712.44;5053705;28;42003;-86
2021/08/04 09:43:48;;;;;;;0.47;0.47;;;;;;;25.51;45.38;98699.03;5054518;28;41381;-86
2021/08/04 09:46:23;;;;;;;0.63;0.63;;;;;;;25.37;46.79;98704.34;5071330;28;40162;-86
2021/08/04 09:48:51;;;;;;;0.70;0.70;;;;;;;25.28;47.56;98678.41;5053607;28;41677;-87
2021/08/04 09:51:20;;;;;;;0.67;0.60;;;;;;;25.51;47.01;98694.47;5054464;28;41567;-86
2021/08/04 09:53:51;;;;;;;0.70;0.70;;;;;;;25.85;46.53;98685.56;5037756;28;42665;-85
2021/08/04 09:56:21;;;;;;;0.73;0.70;;;;;;;26.11;45.57;98680.34;5054508;28;40204;-87
2021/08/04 09:58:51;;;;;;;0.63;0.63;;;;;;;26.49;45.73;98698.97;5054503;28;42254;-87
2021/08/04 10:01:22;;;;;;;0.73;0.73;;;;;;;26.72;44.19;98696.78;5070921;28;42963;-87
2021/08/04 10:04:01;;;;;;;0.80;0.80;;;;;;;26.87;43.82;98693.06;5054461;28;41287;-86
2021/08/04 10:06:30;;;;;;;0.50;0.47;;;;;;;26.97;43.58;98691.66;5054580;28;38817;-85
2021/08/04 10:09:00;;;;;;;0.70;0.70;;;;;;;27.01;42.94;98698.38;5054604;28;40779;-87
2021/08/04 10:11:31;;;;;;;0.30;0.30;;;;;;;27.02;42.52;98704.66;5071291;28;42741;-86
2021/08/04 10:14:00;;;;;;;0.53;0.53;;;;;;;27.09;42.38;98700.06;5053979;28;41446;-85
2021/08/04 10:16:32;;;;;;;0.67;0.67;;;;;;;27.56;41.98;98701.03;5054299;28;38975;-86
2021/08/04 10:19:01;;;;;;;0.60;0.60;;;;;;;28.46;41.28;98687.53;5070860;28;42089;-84
2021/08/04 10:21:29;;;;;;;0.70;0.70;;;;;;;28.83;41.27;98688.69;5088958;28;43059;-86
2021/08/04 10:24:00;;;;;;;0.60;0.60;;;;;;;28.76;40.32;98685.13;5056516;28;42496;-86
2021/08/04 10:26:31;;;;;;;0.60;0.60;;;;;;;28.65;39.82;98723.94;5056757;28;39007;-86
2021/08/04 10:29:00;;;;;;;0.70;0.70;;;;;;;28.18;40.65;98693.28;5057000;28;40877;-85
2021/08/04 10:31:28;;;;;;;0.70;0.70;;;;;;;27.94;41.31;98693.06;5057185;28;42098;-86
2021/08/04 10:33:58;;;;;;;0.60;0.60;;;;;;;27.65;41.63;98678.84;5073352;28;42202;-85
2021/08/04 10:36:33;;;;;;;0.93;0.93;;;;;;;27.52;42.84;98671.47;5057045;28;39405;-85
2021/08/04 10:39:07;;;;;;;0.70;0.70;;;;;;;27.43;42.81;98671.91;5073950;28;42541;-85
2021/08/04 10:41:37;;;;;;;1.00;0.83;;;;;;;27.38;42.53;98683.41;5056356;28;42859;-85
2021/08/04 10:44:06;;;;;;;0.87;0.80;;;;;;;27.26;43.13;98676.88;5091413;28;43161;-84
2021/08/04 10:46:42;;;;;;;0.60;0.60;;;;;;;27.06;43.14;98668.72;5074465;28;40137;-85
2021/08/04 10:49:35;;;;;;;0.57;0.57;;;;;;;27.21;44.32;98659.50;5056816;28;41234;-85
2021/08/04 10:52:14;;;;;;;0.57;0.57;;;;;;;27.57;43.03;98681.75;5074580;28;42024;-84
2021/08/04 10:55:04;;;;;;;0.80;0.80;;;;;;;27.84;42.41;98682.59;5074075;28;42780;-84
2021/08/04 10:57:36;;;;;;;0.97;0.90;;;;;;;27.95;41.72;98679.22;5074030;28;40739;-84
2021/08/04 11:00:24;;;;;;;0.50;0.50;;;;;;;29.00;40.58;98680.84;5073144;28;41029;-87
2021/08/04 11:02:53;;;;;;;0.63;0.63;;;;;;;29.67;39.21;98691.09;5056927;28;41797;-85
2021/08/04 11:05:20;;;;;;;0.80;0.80;;;;;;;29.42;38.63;98693.00;5056728;28;41399;-84
2021/08/04 11:08:17;;;;;;;0.70;0.70;;;;;;;28.81;39.05;98684.50;5057227;28;39154;-84
2021/08/04 11:10:45;;;;;;;0.80;0.80;;;;;;;28.24;40.78;98662.47;5049513;28;40814;-84
2021/08/04 11:13:53;;;;;;;0.63;0.63;;;;;;;27.89;41.64;98670.03;5056183;28;41961;-84
2021/08/04 11:16:32;;;;;;;0.73;0.73;;;;;;;27.45;42.22;98667.06;5056858;28;42867;-86
2021/08/04 11:19:05;;;;;;;0.70;0.60;;;;;;;27.04;43.79;98640.06;5056933;28;39138;-84
2021/08/04 11:21:34;;;;;;;0.50;0.50;;;;;;;26.56;44.60;98628.38;5056708;28;41602;-85
2021/08/04 11:24:02;;;;;;;0.70;0.70;;;;;;;25.96;47.05;98622.66;5056431;28;41837;-85
2021/08/04 11:26:36;;;;;;;0.70;0.70;;;;;;;25.38;49.41;98596.72;5072593;28;42324;-86
2021/08/04 11:29:06;;;;;;;0.40;0.40;;;;;;;25.07;50.42;98610.66;5056883;28;39331;-87
2021/08/04 11:31:34;;;;;;;1.13;0.93;;;;;;;24.70;51.04;98585.47;5055513;28;40493;-85
2021/08/04 11:34:26;;;;;;;0.57;0.50;;;;;;;24.63;52.88;98581.81;5056275;28;43092;-84
2021/08/04 11:36:58;;;;;;;0.60;0.60;;;;;;;24.44;52.22;98577.03;5072980;28;42213;-84
2021/08/04 11:39:26;;;;;;;0.77;0.77;;;;;;;24.36;52.15;98579.84;5055260;28;39974;-85
2021/08/04 11:41:54;;;;;;;0.60;0.60;;;;;;;24.35;52.32;98599.84;5055230;28;40757;-84
2021/08/04 11:44:26;;;;;;;0.43;0.43;;;;;;;24.32;53.19;98589.38;5073180;28;43184;-85
2021/08/04 11:47:00;;;;;;;0.70;0.70;;;;;;;24.33;53.06;98596.47;5072718;28;43003;-85
2021/08/04 11:49:30;;;;;;;0.60;0.60;;;;;;;24.21;52.51;98576.31;5073166;28;39999;-85
2021/08/04 11:52:04;;;;;;;1.13;0.93;;;;;;;24.33;51.85;98607.31;5056059;28;42157;-85
2021/08/04 11:54:38;;;;;;;0.60;0.60;;;;;;;24.24;52.34;98605.72;5072760;28;42180;-86
2021/08/04 11:57:10;;;;;;;0.40;0.40;;;;;;;24.11;52.50;98608.25;5056067;28;41739;-86
2021/08/04 11:59:47;;;;;;;1.67;1.17;;;;;;;23.90;53.69;98590.03;5072573;28;41190;-86
2021/08/04 12:02:16;;;;;;;0.77;0.77;;;;;;;23.82;53.98;98599.09;5055431;28;42231;-84
2021/08/04 12:04:45;;;;;;;0.60;0.60;;;;;;;23.64;54.24;98582.41;5056698;28;41960;-86
2021/08/04 12:07:13;;;;;;;0.60;0.60;;;;;;;23.60;53.84;98589.22;5055373;28;41431;-84
2021/08/04 12:09:42;;;;;;;0.33;0.33;;;;;;;23.66;54.55;98587.63;5072443;28;39811;-87
2021/08/04 12:12:15;;;;;;;0.60;0.60;;;;;;;23.77;54.51;98588.00;5055723;28;40795;-85
2021/08/04 12:14:43;;;;;;;0.60;0.60;;;;;;;23.95;54.15;98583.06;5056255;28;42111;-87
2021/08/04 12:17:22;;;;;;;0.50;0.50;;;;;;;24.16;53.55;98601.22;5054466;28;42109;-85
2021/08/04 12:19:50;;;;;;;0.60;0.60;;;;;;;24.38;52.53;98599.44;5071993;28;39859;-86
2021/08/04 12:22:22;;;;;;;1.20;0.80;;;;;;;24.85;52.43;98589.97;5055100;28;41977;-86
2021/08/04 12:24:53;;;;;;;0.53;0.50;;;;;;;25.38;50.71;98597.56;5072446;28;44157;-88
2021/08/04 12:27:35;;;;;;;0.43;0.43;;;;;;;26.01;48.45;98611.16;5054744;28;42240;-88
2021/08/04 12:30:17;;;;;;;0.40;0.40;;;;;;;26.71;48.77;98604.59;5055527;28;38837;-85
2021/08/04 12:33:00;;;;;;;0.60;0.60;;;;;;;27.41;47.42;98612.28;5055640;28;40630;-86
2021/08/04 12:35:37;;;;;;;0.70;0.70;;;;;;;28.81;44.23;98625.34;5056518;28;41944;-86
2021/08/04 12:38:07;;;;;;;0.43;0.43;;;;;;;29.11;42.24;98633.78;5072037;28;42084;-86
2021/08/04 12:40:35;;;;;;;1.23;0.70;;;;;;;29.10;42.57;98628.53;5071579;28;40187;-86
2021/08/04 12:43:04;;;;;;;0.60;0.60;;;;;;;29.05;43.53;98633.84;5071328;28;41965;-83
2021/08/04 12:45:32;;;;;;;8.23;1.00;;;;;;;28.73;42.46;98633.75;5055628;28;41848;-86
2021/08/04 12:48:02;;;;;;;0.70;0.70;;;;;;;28.34;42.64;98612.13;5054749;28;41557;-84
2021/08/04 12:50:49;;;;;;;0.60;0.50;;;;;;;28.20;43.39;98612.19;5054911;28;38883;-84
2021/08/04 12:53:23;;;;;;;0.40;0.40;;;;;;;28.05;44.94;98597.97;5055147;28;40876;-84
2021/08/04 12:56:02;;;;;;;0.70;0.70;;;;;;;27.96;43.68;98612.84;5054904;28;42869;-85
2021/08/04 12:58:30;;;;;;;1.00;1.00;;;;;;;27.74;44.94;98584.22;5071759;28;42399;-84
2021/08/04 13:00:57;;;;;;;0.70;0.70;;;;;;;27.67;43.34;98611.44;5055279;28;39065;-84
2021/08/04 13:03:41;;;;;;;0.50;0.50;;;;;;;27.56;43.33;98622.13;5071278;28;40872;-84
2021/08/04 13:06:09;;;;;;;0.50;0.50;;;;;;;27.34;44.43;98599.69;5054163;28;42095;-86
2021/08/04 13:08:37;;;;;;;0.67;0.67;;;;;;;27.14;43.24;98599.69;5072292;28;43085;-84
2021/08/04 13:11:06;;;;;;;0.60;0.60;;;;;;;27.03;43.96;98603.03;5054249;28;39052;-84
2021/08/04 13:14:01;;;;;;;0.50;0.50;;;;;;;26.92;43.84;98606.34;5071874;28;41855;-85
2021/08/04 13:16:30;;;;;;;0.60;0.60;;;;;;;26.63;43.85;98591.22;5052034;28;42000;-85
2021/08/04 13:19:00;;;;;;;0.47;0.47;;;;;;;26.53;44.92;98597.03;5071015;28;41314;-85
2021/08/04 13:21:28;;;;;;;0.40;0.40;;;;;;;26.27;45.18;98581.44;5055062;28;39159;-85
2021/08/04 13:23:56;;;;;;;0.50;0.50;;;;;;;26.19;45.78;98594.38;5070710;28;40882;-84
2021/08/04 13:26:34;;;;;;;0.73;0.70;;;;;;;25.92;45.94;98577.94;5071004;28;41954;-85
2021/08/04 13:29:01;;;;;;;0.60;0.60;;;;;;;25.86;46.73;98586.88;5070859;28;42456;-84
2021/08/04 13:31:29;;;;;;;0.40;0.40;;;;;;;25.61;47.28;98564.81;5070994;28;39985;-84
2021/08/04 13:33:57;;;;;;;0.60;0.60;;;;;;;25.45;47.07;98580.53;5071035;28;42401;-84
2021/08/04 13:36:26;;;;;;;0.87;0.60;;;;;;;25.30;47.09;98578.75;5054311;28;43065;-84
2021/08/04 13:38:54;;;;;;;0.40;0.40;;;;;;;25.14;46.74;98578.19;5054862;28;41544;-84
2021/08/04 13:41:21;;;;;;;0.83;0.57;;;;;;;25.07;48.06;98580.84;5089891;28;40338;-84
2021/08/04 13:43:50;;;;;;;0.40;0.40;;;;;;;24.91;48.97;98562.94;5071304;28;41180;-84
2021/08/04 13:46:18;;;;;;;0.50;0.50;;;;;;;24.86;48.71;98572.66;5071323;28;41728;-84
2021/08/04 13:48:45;;;;;;;0.57;0.40;;;;;;;24.76;48.09;98586.53;5054034;28;41386;-85
2021/08/04 13:51:13;;;;;;;0.33;0.33;;;;;;;24.61;47.18;98600.13;5089746;28;39927;-86
2021/08/04 13:53:42;;;;;;;0.30;0.30;;;;;;;24.27;45.97;98578.28;5054668;28;41679;-85
2021/08/04 13:56:10;;;;;;;0.33;0.33;;;;;;;24.31;44.71;98610.19;5054472;28;42034;-85
2021/08/04 13:58:37;;;;;;;0.23;0.23;;;;;;;24.25;45.17;98593.88;5056732;28;41329;-84
2021/08/04 14:01:05;;;;;;;0.30;0.27;;;;;;;24.26;47.29;98563.06;5074706;28;39842;-84
2021/08/04 14:03:33;;;;;;;0.30;0.20;;;;;;;24.34;47.43;98574.66;5058219;28;40719;-84
2021/08/04 14:06:01;;;;;;;0.20;0.20;;;;;;;24.30;48.94;98565.22;5073505;28;41544;-84
2021/08/04 14:08:28;;;;;;;0.40;0.40;;;;;;;24.38;48.84;98572.38;5074482;28;41491;-84
2021/08/04 14:10:58;;;;;;;0.20;0.20;;;;;;;24.38;48.99;98566.13;5074057;28;40336;-84
2021/08/04 14:13:26;;;;;;;0.40;0.40;;;;;;;24.30;49.63;98540.03;5057061;28;40856;-85
2021/08/04 14:15:53;;;;;;;0.40;0.40;;;;;;;24.32;49.12;98540.66;5057032;28;42864;-85
2021/08/04 14:18:21;;;;;;;0.40;0.37;;;;;;;24.30;49.98;98537.31;5073570;28;42257;-84
2021/08/04 14:20:48;;;;;;;0.40;0.40;;;;;;;24.43;50.21;98552.88;5074957;28;39891;-85
2021/08/04 14:23:17;;;;;;;0.30;0.30;;;;;;;24.42;49.32;98560.16;5074214;28;41999;-85
2021/08/04 14:25:44;;;;;;;0.50;0.50;;;;;;;24.31;49.41;98545.25;5074506;28;41678;-84
2021/08/04 14:28:14;;;;;;;0.30;0.30;;;;;;;24.42;49.45;98559.31;5075712;28;42262;-84
2021/08/04 14:30:41;;;;;;;0.20;0.20;;;;;;;24.43;49.38;98564.53;5075168;28;41000;-84
2021/08/04 14:33:09;;;;;;;0.30;0.30;;;;;;;24.51;49.70;98566.28;5056841;28;41649;-84
2021/08/04 14:35:36;;;;;;;0.30;0.30;;;;;;;24.50;49.84;98560.03;5074229;28;42922;-84
2021/08/04 14:38:04;;;;;;;0.30;0.30;;;;;;;24.64;50.01;98567.25;5056674;28;41372;-84
2021/08/04 14:40:32;;;;;;;0.37;0.37;;;;;;;24.61;49.45;98548.69;5057549;28;40144;-85
2021/08/04 14:42:59;;;;;;;0.27;0.20;;;;;;;24.64;48.37;98553.72;5073578;28;40832;-83
2021/08/04 14:45:29;;;;;;;0.30;0.30;;;;;;;24.77;49.07;98560.28;5074155;28;43115;-85
2021/08/04 14:47:57;;;;;;;0.33;0.33;;;;;;;24.67;48.25;98560.63;5056322;28;41372;-85
2021/08/04 14:50:25;;;;;;;0.40;0.40;;;;;;;24.75;48.02;98573.19;5057111;28;39136;-85
2021/08/04 14:52:52;;;;;;;0.40;0.30;;;;;;;24.62;48.67;98553.06;5056499;28;41634;-86
2021/08/04 14:55:20;;;;;;;0.20;0.20;;;;;;;24.61;48.63;98556.81;5073721;28;43682;-85
2021/08/04 14:57:48;;;;;;;0.40;0.33;;;;;;;24.49;49.43;98542.09;5074397;28;42425;-85
2021/08/04 15:00:16;;;;;;;0.30;0.23;;;;;;;24.39;49.68;98546.97;5056378;28;38902;-84
2021/08/04 15:02:45;;;;;;;0.30;0.30;;;;;;;24.36;49.82;98550.06;5073543;28;41590;-84
2021/08/04 15:05:12;;;;;;;0.43;0.40;;;;;;;24.27;50.16;98545.81;5073327;28;41821;-85
2021/08/04 15:07:41;;;;;;;0.40;0.40;;;;;;;24.15;50.15;98548.13;5056722;28;42548;-85
2021/08/04 15:10:09;;;;;;;0.57;0.50;;;;;;;24.06;50.89;98537.63;5073011;28;39268;-85
2021/08/04 15:12:37;;;;;;;0.50;0.50;;;;;;;23.82;51.45;98520.69;5057275;28;42057;-85
2021/08/04 15:15:05;;;;;;;0.30;0.30;;;;;;;23.73;51.98;98540.75;5055744;28;41935;-86
2021/08/04 15:17:35;;;;;;;0.40;0.40;;;;;;;23.52;51.62;98532.50;5056795;28;42373;-85
2021/08/04 15:20:05;;;;;;;0.40;0.40;;;;;;;23.27;52.03;98516.53;5040743;28;40151;-85
2021/08/04 15:22:32;;;;;;;0.40;0.40;;;;;;;23.19;51.69;98538.22;5091364;28;42747;-84
2021/08/04 15:25:00;;;;;;;0.40;0.40;;;;;;;22.99;52.47;98528.97;5056032;28;42738;-85
2021/08/04 15:27:28;;;;;;;0.40;0.40;;;;;;;22.80;53.14;98526.75;5056361;28;42600;-86
2021/08/04 15:29:55;;;;;;;0.33;0.33;;;;;;;22.67;53.47;98534.59;5056765;28;39920;-84
2021/08/04 15:32:23;;;;;;;0.33;0.33;;;;;;;22.55;54.46;98529.63;5056428;28;41646;-85
2021/08/04 15:34:51;;;;;;;0.30;0.30;;;;;;;22.37;54.96;98515.59;5073070;28;43132;-85
2021/08/04 15:37:20;;;;;;;0.40;0.40;;;;;;;22.30;55.22;98508.38;5055810;28;41283;-84
2021/08/04 15:39:48;;;;;;;0.30;0.30;;;;;;;22.34;55.43;98521.34;5052916;28;40141;-84
2021/08/04 15:42:15;;;;;;;0.37;0.37;;;;;;;22.24;55.62;98512.66;5069664;28;41459;-85
2021/08/04 15:44:43;;;;;;;0.30;0.30;;;;;;;22.22;56.00;98506.59;5055583;28;41709;-86
2021/08/04 15:47:11;;;;;;;0.33;0.33;;;;;;;22.23;56.14;98518.22;5091046;28;42568;-85
2021/08/04 15:49:38;;;;;;;0.40;0.40;;;;;;;22.21;56.29;98515.69;5073490;28;40354;-86
2021/08/04 15:52:07;;;;;;;0.30;0.30;;;;;;;22.19;56.50;98515.88;5055308;28;40747;-85
2021/08/04 15:54:36;;;;;;;0.50;0.50;;;;;;;22.08;56.78;98496.56;5091347;28;44264;-85
2021/08/04 15:57:04;;;;;;;0.50;0.50;;;;;;;22.19;57.04;98512.31;5072943;28;42378;-84
2021/08/04 15:59:31;;;;;;;0.23;0.23;;;;;;;22.10;56.96;98506.16;5073039;28;40929;-85
2021/08/04 16:01:59;;;;;;;0.97;0.60;;;;;;;22.17;57.32;98517.91;5056017;28;41788;-85
2021/08/04 16:04:26;;;;;;;0.50;0.50;;;;;;;22.15;57.11;98519.09;5056652;28;41824;-85
2021/08/04 16:06:55;;;;;;;0.77;0.50;;;;;;;22.11;57.61;98507.00;5056261;28;42224;-84
2021/08/04 16:09:22;;;;;;;0.20;0.20;;;;;;;22.12;57.19;98519.47;5073335;28;39807;-85
2021/08/04 16:11:51;;;;;;;0.50;0.50;;;;;;;22.10;57.55;98502.63;5073143;28;41749;-85
2021/08/04 16:14:19;;;;;;;1.47;0.73;;;;;;;22.08;57.67;98504.63;5055818;28;42730;-85
2021/08/04 16:16:47;;;;;;;0.30;0.30;;;;;;;22.06;57.66;98498.59;5055942;28;41127;-84
2021/08/04 16:19:14;;;;;;;0.70;0.70;;;;;;;22.05;57.39;98494.19;5055507;28;39936;-85
2021/08/04 16:21:42;;;;;;;0.40;0.40;;;;;;;22.05;57.32;98494.19;5054668;28;40451;-84
2021/08/04 16:24:10;;;;;;;0.60;0.50;;;;;;;22.10;57.48;98491.81;5055365;28;41836;-85
2021/08/04 16:26:37;;;;;;;0.43;0.43;;;;;;;22.11;57.62;98488.13;5055840;28;42137;-84